createdAt,value
2022-12-07T00:04:01.787Z,100984.25
2022-12-07T00:06:28.670Z,100988.34
2022-12-07T00:08:55.312Z,100979.72
2022-12-07T00:11:23.559Z,100984.84
2022-12-07T00:13:55.459Z,100978.72
2022-12-07T00:16:23.591Z,100967.59
2022-12-07T00:18:50.179Z,100964.13
2022-12-07T00:21:20.286Z,100970.16
2022-12-07T00:23:48.769Z,100972.72
2022-12-07T00:26:20.321Z,100973.53
2022-12-07T00:28:48.813Z,100979.44
2022-12-07T00:31:17.592Z,100974.34
2022-12-07T00:33:44.559Z,100967.50
2022-12-07T00:36:13.802Z,100960.59
2022-12-07T00:38:40.737Z,100967.41
2022-12-07T00:41:11.395Z,100966.53
2022-12-07T00:43:38.392Z,100955.22
2022-12-07T00:46:05.195Z,100961.19
2022-12-07T00:48:32.301Z,100955.22
2022-12-07T00:50:59.386Z,100954.34
2022-12-07T00:53:25.960Z,100955.94
2022-12-07T00:55:53.640Z,100955.88
2022-12-07T00:58:20.705Z,100949.97
2022-12-07T01:00:47.553Z,100953.31
2022-12-07T01:03:18.355Z,100951.69
2022-12-07T01:05:54.941Z,100958.56
2022-12-07T01:08:22.435Z,100953.44
2022-12-07T01:10:49.514Z,100945.00
2022-12-07T01:13:16.873Z,100955.22
2022-12-07T01:15:44.879Z,100958.56
2022-12-07T01:18:12.143Z,100955.06
2022-12-07T01:20:38.880Z,100965.28
2022-12-07T01:23:05.714Z,100965.13
2022-12-07T01:25:32.394Z,100963.22
2022-12-07T01:27:59.037Z,100964.78
2022-12-07T01:30:25.808Z,100966.28
2022-12-07T01:32:52.412Z,100958.47
2022-12-07T01:35:19.351Z,100964.22
2022-12-07T01:37:45.901Z,100970.94
2022-12-07T01:40:12.825Z,100964.78
2022-12-07T01:42:39.411Z,100961.22
2022-12-07T01:45:42.830Z,100969.47
2022-12-07T01:48:12.569Z,100959.16
2022-12-07T01:50:40.580Z,100961.72
2022-12-07T01:53:09.179Z,100964.91
2022-12-07T01:55:39.762Z,100964.03
2022-12-07T01:58:06.799Z,100954.53
2022-12-07T02:00:33.567Z,100951.06
2022-12-07T02:03:23.137Z,100952.66
2022-12-07T02:05:51.163Z,100962.84
2022-12-07T02:08:18.877Z,100958.56
2022-12-07T02:10:45.552Z,100957.59
2022-12-07T02:13:18.743Z,100962.53
2022-12-07T02:16:01.253Z,100957.28
2022-12-07T02:24:28.806Z,100955.88
2022-12-07T02:33:01.922Z,100957.81
2022-12-07T02:41:14.407Z,100946.38
2022-12-07T02:44:00.918Z,100937.78
2022-12-07T02:46:32.391Z,100941.19
2022-12-07T02:49:00.704Z,100943.66
2022-12-07T02:51:31.615Z,100936.91
2022-12-07T02:53:58.498Z,100934.19
2022-12-07T03:02:29.421Z,100925.47
2022-12-07T03:05:35.756Z,100924.31
2022-12-07T03:16:31.568Z,100918.75
2022-12-07T03:19:03.298Z,100918.66
2022-12-07T03:21:38.341Z,100910.94
2022-12-07T03:24:12.087Z,100913.47
2022-12-07T03:26:44.426Z,100917.63
2022-12-07T03:29:20.871Z,100914.13
2022-12-07T03:31:56.810Z,100902.16
2022-12-07T03:34:30.454Z,100898.66
2022-12-07T03:39:41.015Z,100898.41
2022-12-07T03:42:10.413Z,100887.38
2022-12-07T03:44:37.658Z,100897.41
2022-12-07T03:52:33.025Z,100901.34
2022-12-07T03:57:37.026Z,100900.41
2022-12-07T04:00:07.634Z,100896.13
2022-12-07T04:02:34.225Z,100898.41
2022-12-07T04:05:02.203Z,100897.53
2022-12-07T04:07:28.938Z,100895.88
2022-12-07T04:09:55.968Z,100894.03
2022-12-07T04:12:23.266Z,100892.28
2022-12-07T04:14:50.092Z,100900.72
2022-12-07T04:17:16.764Z,100903.25
2022-12-07T04:19:43.295Z,100904.97
2022-12-07T04:22:09.927Z,100902.41
2022-12-07T04:24:36.601Z,100893.88
2022-12-07T04:27:03.539Z,100897.38
2022-12-07T04:29:30.136Z,100902.47
2022-12-07T04:31:56.787Z,100899.22
2022-12-07T04:34:23.395Z,100897.53
2022-12-07T04:36:50.031Z,100901.06
2022-12-07T04:41:57.200Z,100892.59
2022-12-07T04:44:25.553Z,100894.34
2022-12-07T04:46:52.642Z,100890.84
2022-12-07T04:49:19.659Z,100890.84
2022-12-07T04:51:47.575Z,100884.88
2022-12-07T04:54:15.953Z,100882.25
2022-12-07T04:56:42.888Z,100885.59
2022-12-07T04:59:11.804Z,100881.13
2022-12-07T05:01:38.707Z,100885.25
2022-12-07T05:04:05.578Z,100877.47
2022-12-07T05:06:32.134Z,100884.06
2022-12-07T05:08:58.793Z,100878.03
2022-12-07T05:11:41.308Z,100879.69
2022-12-07T05:14:15.637Z,100881.25
2022-12-07T05:16:43.601Z,100882.94
2022-12-07T05:19:10.735Z,100882.78
2022-12-07T05:21:37.756Z,100884.34
2022-12-07T05:24:04.906Z,100875.84
2022-12-07T05:26:31.814Z,100877.44
2022-12-07T05:28:58.795Z,100878.25
2022-12-07T05:31:27.015Z,100867.06
2022-12-07T05:33:54.308Z,100870.44
2022-12-07T05:36:21.057Z,100868.69
2022-12-07T05:38:47.736Z,100869.47
2022-12-07T05:41:37.931Z,100877.13
2022-12-07T05:44:05.665Z,100876.16
2022-12-07T05:46:32.319Z,100874.31
2022-12-07T05:48:58.913Z,100871.84
2022-12-07T05:51:25.639Z,100871.69
2022-12-07T05:53:52.272Z,100880.13
2022-12-07T05:56:18.879Z,100875.75
2022-12-07T05:59:05.404Z,100876.44
2022-12-07T06:01:31.972Z,100871.22
2022-12-07T06:03:58.671Z,100867.69
2022-12-07T06:06:25.353Z,100857.31
2022-12-07T06:08:52.126Z,100852.94
2022-12-07T06:11:38.762Z,100852.09
2022-12-07T06:14:05.341Z,100855.41
2022-12-07T06:16:31.929Z,100857.88
2022-12-07T06:18:58.589Z,100859.56
2022-12-07T06:21:26.881Z,100857.72
2022-12-07T06:23:53.906Z,100861.94
2022-12-07T06:26:21.017Z,100852.47
2022-12-07T06:28:47.754Z,100860.88
2022-12-07T06:31:14.441Z,100848.00
2022-12-07T06:33:41.772Z,100854.75
2022-12-07T06:36:09.055Z,100841.84
2022-12-07T06:38:36.085Z,100846.84
2022-12-07T06:41:02.710Z,100840.91
2022-12-07T06:43:29.612Z,100842.47
2022-12-07T06:45:56.263Z,100844.06
2022-12-07T06:48:22.859Z,100839.66
2022-12-07T06:50:54.454Z,100844.69
2022-12-07T06:53:21.830Z,100844.69
2022-12-07T06:55:48.403Z,100840.38
2022-12-07T06:58:14.989Z,100836.88
2022-12-07T07:00:41.759Z,100833.53
2022-12-07T07:03:08.344Z,100845.28
2022-12-07T07:05:34.982Z,100852.16
2022-12-07T07:08:22.033Z,100845.28
2022-12-07T07:10:49.354Z,100855.47
2022-12-07T07:13:16.135Z,100853.72
2022-12-07T07:15:43.093Z,100846.91
2022-12-07T07:18:09.673Z,100853.63
2022-12-07T07:20:36.715Z,100850.25
2022-12-07T07:23:03.329Z,100848.47
2022-12-07T07:25:30.216Z,100861.28
2022-12-07T07:27:56.783Z,100850.25
2022-12-07T07:30:23.482Z,100859.53
2022-12-07T07:32:50.186Z,100850.25
2022-12-07T07:35:17.278Z,100851.09
2022-12-07T07:37:43.886Z,100860.41
2022-12-07T07:40:11.133Z,100847.78
2022-12-07T07:42:37.798Z,100844.34
2022-12-07T07:45:05.541Z,100846.00
2022-12-07T07:47:32.287Z,100845.16
2022-12-07T07:49:58.971Z,100840.06
2022-12-07T07:52:25.568Z,100840.06
2022-12-07T07:54:52.130Z,100839.16
2022-12-07T07:57:19.010Z,100836.53
2022-12-07T07:59:45.576Z,100835.59
2022-12-07T08:02:21.166Z,100838.13
2022-12-07T08:04:47.907Z,100833.91
2022-12-07T08:07:15.529Z,100847.59
2022-12-07T08:09:42.788Z,100844.25
2022-12-07T08:12:09.646Z,100843.53
2022-12-07T08:14:36.235Z,100847.38
2022-12-07T08:17:02.928Z,100845.53
2022-12-07T08:19:29.543Z,100850.84
2022-12-07T08:21:57.408Z,100845.13
2022-12-07T08:24:24.548Z,100846.41
2022-12-07T08:26:51.477Z,100837.16
2022-12-07T08:29:18.623Z,100851.59
2022-12-07T08:31:45.340Z,100854.00
2022-12-07T08:34:12.637Z,100852.81
2022-12-07T08:36:39.216Z,100848.75
2022-12-07T08:39:30.769Z,100845.81
2022-12-07T08:41:52.443Z,100848.69
2022-12-07T08:44:18.993Z,100846.16
2022-12-07T08:46:54.350Z,100850.75
2022-12-07T08:49:25.873Z,100857.56
2022-12-07T08:51:52.769Z,100854.97
2022-12-07T08:54:20.348Z,100849.59
2022-12-07T08:56:49.498Z,100842.97
2022-12-07T08:59:20.230Z,100846.75
2022-12-07T09:01:46.914Z,100849.91
2022-12-07T09:04:13.549Z,100850.84
2022-12-07T09:06:40.380Z,100845.78
2022-12-07T09:09:07.633Z,100849.69
2022-12-07T09:11:34.179Z,100847.47
2022-12-07T09:14:00.704Z,100843.50
2022-12-07T09:16:27.378Z,100848.84
2022-12-07T09:18:54.034Z,100855.84
2022-12-07T09:21:20.560Z,100854.34
2022-12-07T09:23:47.122Z,100863.09
2022-12-07T09:26:13.723Z,100850.16
2022-12-07T09:28:40.343Z,100850.78
2022-12-07T09:31:24.896Z,100850.34
2022-12-07T09:34:01.647Z,100844.66
2022-12-07T09:36:29.471Z,100845.63
2022-12-07T09:38:56.318Z,100843.06
2022-12-07T09:41:25.103Z,100846.53
2022-12-07T09:43:52.190Z,100848.19
2022-12-07T09:46:21.656Z,100853.41
2022-12-07T09:48:50.995Z,100845.72
2022-12-07T09:51:24.172Z,100844.84
2022-12-07T09:53:53.225Z,100851.66
2022-12-07T09:56:20.895Z,100853.16
2022-12-07T09:58:48.376Z,100856.34
2022-12-07T10:01:19.776Z,100843.78
2022-12-07T10:03:54.176Z,100853.81
2022-12-07T10:06:21.715Z,100848.22
2022-12-07T10:08:48.480Z,100845.16
2022-12-07T10:11:17.188Z,100845.44
2022-12-07T10:13:48.805Z,100838.94
2022-12-07T10:16:42.806Z,100842.06
2022-12-07T10:19:28.350Z,100835.91
2022-12-07T10:22:16.301Z,100834.41
2022-12-07T10:24:44.937Z,100837.59
2022-12-07T10:27:27.115Z,100828.34
2022-12-07T10:29:54.522Z,100830.97
2022-12-07T10:35:32.970Z,100818.53
2022-12-07T10:38:00.966Z,100816.41
2022-12-07T10:40:38.641Z,100822.84
2022-12-07T10:43:18.779Z,100819.72
2022-12-07T11:05:53.942Z,100797.19
2022-12-07T11:09:00.422Z,100792.34
2022-12-07T11:11:37.607Z,100790.84
2022-12-07T11:14:25.018Z,100783.38
2022-12-07T11:19:55.892Z,100778.09
2022-12-07T11:22:37.878Z,100778.53
2022-12-07T11:28:40.143Z,100763.56
2022-12-07T11:42:02.616Z,100752.81
2022-12-07T11:47:17.875Z,100737.16
2022-12-07T11:49:54.024Z,100740.69
2022-12-07T11:52:31.868Z,100745.84
2022-12-07T11:55:00.097Z,100737.56
2022-12-07T11:57:36.355Z,100721.69
2022-12-07T12:00:07.538Z,100717.09
2022-12-07T12:02:58.788Z,100716.75
2022-12-07T12:05:26.982Z,100723.97
2022-12-07T12:11:20.457Z,100715.25
2022-12-07T12:14:34.792Z,100712.25
2022-12-07T12:22:43.329Z,100708.94
2022-12-07T12:25:31.948Z,100700.97
2022-12-07T12:28:00.796Z,100692.44
2022-12-07T12:33:25.005Z,100680.72
2022-12-07T12:47:38.397Z,100662.41
2022-12-07T12:50:18.218Z,100655.22
2022-12-07T12:55:27.785Z,100643.97
2022-12-07T13:01:39.822Z,100637.66
2022-12-07T13:04:22.602Z,100640.06
2022-12-07T13:06:49.345Z,100626.38
2022-12-07T13:09:24.107Z,100628.03
2022-12-07T13:11:58.643Z,100635.56
2022-12-07T13:14:54.335Z,100631.91
2022-12-07T13:20:41.650Z,100624.16
2022-12-07T13:23:10.183Z,100620.78
2022-12-07T13:25:45.100Z,100623.41
2022-12-07T13:28:18.682Z,100616.53
2022-12-07T13:30:57.969Z,100608.03
2022-12-07T13:33:25.267Z,100607.91
2022-12-07T13:35:55.310Z,100604.53
2022-12-07T13:38:38.317Z,100606.06
2022-12-07T13:41:23.193Z,100596.66
2022-12-07T13:43:54.208Z,100599.31
2022-12-07T13:46:32.169Z,100591.53
2022-12-07T13:48:58.847Z,100587.19
2022-12-07T13:51:28.241Z,100592.31
2022-12-07T13:54:00.642Z,100584.59
2022-12-07T13:56:34.473Z,100582.06
2022-12-07T13:59:01.332Z,100576.88
2022-12-07T14:01:29.244Z,100573.47
2022-12-07T14:03:55.903Z,100564.84
2022-12-07T14:06:28.031Z,100565.75
2022-12-07T14:09:19.028Z,100559.66
2022-12-07T14:11:47.095Z,100555.31
2022-12-07T14:14:19.212Z,100550.91
2022-12-07T14:16:57.796Z,100558.53
2022-12-07T14:22:30.981Z,100553.28
2022-12-07T14:27:37.326Z,100550.63
2022-12-07T14:30:05.826Z,100552.22
2022-12-07T14:32:36.544Z,100547.09
2022-12-07T14:37:48.083Z,100535.03
2022-12-07T14:40:25.139Z,100535.03
2022-12-07T14:42:56.745Z,100538.41
2022-12-07T14:45:24.353Z,100534.91
2022-12-07T14:53:34.642Z,100520.00
2022-12-07T14:56:01.332Z,100527.50
2022-12-07T14:58:27.866Z,100535.72
2022-12-07T15:00:54.392Z,100531.41
2022-12-07T15:03:21.014Z,100532.94
2022-12-07T15:05:47.629Z,100530.31
2022-12-07T15:08:14.747Z,100540.44
2022-12-07T15:10:41.568Z,100544.59
2022-12-07T15:13:28.575Z,100533.34
2022-12-07T15:15:56.307Z,100530.66
2022-12-07T15:18:24.218Z,100533.13
2022-12-07T15:20:51.390Z,100530.47
2022-12-07T15:23:18.322Z,100532.00
2022-12-07T15:25:47.641Z,100525.81
2022-12-07T15:28:14.821Z,100522.22
2022-12-07T15:30:44.465Z,100517.78
2022-12-07T15:33:12.319Z,100521.03
2022-12-07T15:35:42.324Z,100510.69
2022-12-07T15:38:09.328Z,100504.50
2022-12-07T15:40:36.160Z,100502.66
2022-12-07T15:43:03.494Z,100499.88
2022-12-07T15:45:30.036Z,100501.97
2022-12-07T15:48:26.695Z,100491.75
2022-12-07T15:50:43.097Z,100482.25
2022-12-07T15:53:09.646Z,100478.72
2022-12-07T15:55:36.208Z,100469.19
2022-12-07T15:58:02.862Z,100466.38
2022-12-07T16:00:29.381Z,100468.72
2022-12-07T16:02:56.024Z,100461.59
2022-12-07T16:05:22.740Z,100459.63
2022-12-07T16:07:49.339Z,100465.53
2022-12-07T16:10:16.126Z,100466.31
2022-12-07T16:12:42.743Z,100476.31
2022-12-07T16:15:09.819Z,100467.56
2022-12-07T16:17:36.372Z,100477.69
2022-12-07T16:20:04.780Z,100475.81
2022-12-07T16:22:31.327Z,100480.78
2022-12-07T16:24:57.897Z,100476.28
2022-12-07T16:27:24.491Z,100480.44
2022-12-07T16:29:51.070Z,100476.97
2022-12-07T16:32:17.633Z,100476.78
2022-12-07T16:34:44.248Z,100478.41
2022-12-07T16:37:10.808Z,100475.66
2022-12-07T16:39:37.783Z,100469.53
2022-12-07T16:42:04.492Z,100462.56
2022-12-07T16:44:32.508Z,100467.53
2022-12-07T16:46:59.217Z,100464.03
2022-12-07T16:49:25.821Z,100462.03
2022-12-07T16:52:14.702Z,100460.44
2022-12-07T16:54:39.286Z,100458.56
2022-12-07T16:57:05.886Z,100468.63
2022-12-07T16:59:32.565Z,100466.00
2022-12-07T17:01:59.386Z,100453.19
2022-12-07T17:04:26.032Z,100453.03
2022-12-07T17:06:52.644Z,100450.44
2022-12-07T17:09:21.395Z,100456.28
2022-12-07T17:11:49.081Z,100453.59
2022-12-07T17:14:35.765Z,100451.84
2022-12-07T17:17:02.471Z,100455.06
2022-12-07T17:19:28.999Z,100440.59
2022-12-07T17:21:55.987Z,100437.09
2022-12-07T17:24:22.594Z,100431.00
2022-12-07T17:26:49.239Z,100439.41
2022-12-07T17:29:17.789Z,100424.88
2022-12-07T17:31:49.493Z,100427.34
2022-12-07T17:34:18.083Z,100423.00
2022-12-07T17:36:46.094Z,100418.63
2022-12-07T17:39:17.201Z,100412.56
2022-12-07T17:42:03.772Z,100405.69
2022-12-07T17:44:30.374Z,100398.69
2022-12-07T17:46:59.178Z,100400.31
2022-12-07T17:49:27.196Z,100399.31
2022-12-07T17:52:13.885Z,100398.31
2022-12-07T17:54:40.469Z,100395.63
2022-12-07T17:57:07.163Z,100389.56
2022-12-07T17:59:33.894Z,100391.19
2022-12-07T18:02:00.615Z,100401.25
2022-12-07T18:04:27.221Z,100394.41
2022-12-07T18:06:53.777Z,100390.06
2022-12-07T18:09:22.036Z,100383.16
2022-12-07T18:11:48.627Z,100380.59
2022-12-07T18:14:16.647Z,100380.47
2022-12-07T18:16:43.445Z,100376.97
2022-12-07T18:19:13.450Z,100377.78
2022-12-07T18:21:40.117Z,100378.59
2022-12-07T18:24:07.258Z,100375.06
2022-12-07T18:26:37.813Z,100378.44
2022-12-07T18:29:06.148Z,100369.00
2022-12-07T18:31:33.559Z,100373.06
2022-12-07T18:34:04.750Z,100372.19
2022-12-07T18:36:31.529Z,100369.59
2022-12-07T18:38:58.206Z,100360.97
2022-12-07T18:41:24.757Z,100360.06
2022-12-07T18:43:51.286Z,100355.75
2022-12-07T18:46:20.699Z,100354.91
2022-12-07T18:48:49.363Z,100358.25
2022-12-07T18:51:16.720Z,100350.63
2022-12-07T18:53:43.598Z,100348.78
2022-12-07T18:56:14.378Z,100345.31
2022-12-07T18:59:01.379Z,100337.66
2022-12-07T19:01:28.365Z,100332.50
2022-12-07T19:03:55.051Z,100336.56
2022-12-07T19:06:21.585Z,100332.34
2022-12-07T19:08:48.127Z,100339.09
2022-12-07T19:11:45.040Z,100336.44
2022-12-07T19:14:11.828Z,100326.84
2022-12-07T19:16:38.792Z,100331.06
2022-12-07T19:19:05.470Z,100319.16
2022-12-07T19:21:32.095Z,100319.97
2022-12-07T19:23:58.643Z,100314.72
2022-12-07T19:26:25.303Z,100313.03
2022-12-07T19:28:51.824Z,100312.16
2022-12-07T19:31:18.551Z,100312.94
2022-12-07T19:33:45.202Z,100312.91
2022-12-07T19:36:11.772Z,100307.75
2022-12-07T19:38:38.337Z,100305.13
2022-12-07T19:43:42.297Z,100299.88
2022-12-07T19:46:09.977Z,100298.00
2022-12-07T19:48:36.714Z,100299.75
2022-12-07T19:51:04.724Z,100289.34
2022-12-07T19:53:33.243Z,100297.78
2022-12-07T19:55:59.966Z,100301.28
2022-12-07T19:58:26.984Z,100290.97
2022-12-07T20:00:53.827Z,100290.00
2022-12-07T20:03:20.801Z,100294.16
2022-12-07T20:05:47.522Z,100294.16
2022-12-07T20:08:14.099Z,100296.63
2022-12-07T20:10:41.532Z,100290.66
2022-12-07T20:13:28.963Z,100279.63
2022-12-07T20:16:17.918Z,100279.56
2022-12-07T20:18:42.609Z,100277.03
2022-12-07T20:21:09.186Z,100281.16
2022-12-07T20:23:35.744Z,100278.53
2022-12-07T20:26:05.449Z,100270.03
2022-12-07T20:28:32.490Z,100264.06
2022-12-07T20:30:59.140Z,100266.53
2022-12-07T20:33:25.791Z,100273.25
2022-12-07T20:35:52.444Z,100274.03
2022-12-07T20:38:19.017Z,100273.97
2022-12-07T20:40:48.782Z,100282.25
2022-12-07T20:43:15.885Z,100273.69
2022-12-07T20:45:50.455Z,100268.59
2022-12-07T20:48:17.156Z,100264.31
2022-12-07T20:50:43.736Z,100267.56
2022-12-07T20:53:10.384Z,100256.63
2022-12-07T20:55:36.987Z,100259.16
2022-12-07T20:58:03.757Z,100253.91
2022-12-07T21:00:30.418Z,100251.47
2022-12-07T21:02:57.412Z,100251.38
2022-12-07T21:05:25.065Z,100248.91
2022-12-07T21:07:51.808Z,100252.25
2022-12-07T21:10:18.592Z,100245.47
2022-12-07T21:12:45.197Z,100240.41
2022-12-07T21:15:14.752Z,100253.03
2022-12-07T21:17:41.877Z,100236.94
2022-12-07T21:20:09.173Z,100235.16
2022-12-07T21:22:37.048Z,100231.84
2022-12-07T21:25:04.196Z,100222.31
2022-12-07T21:27:30.941Z,100225.72
2022-12-07T21:29:57.548Z,100229.97
2022-12-07T21:32:24.201Z,100225.66
2022-12-07T21:34:50.971Z,100219.63
2022-12-07T21:37:17.504Z,100217.88
2022-12-07T21:39:44.054Z,100218.75
2022-12-07T21:42:10.580Z,100219.63
2022-12-07T21:44:37.512Z,100217.88
2022-12-07T21:47:04.367Z,100211.03
2022-12-07T21:49:31.167Z,100208.44
2022-12-07T21:51:57.757Z,100199.88
2022-12-07T21:54:25.981Z,100203.19
2022-12-07T21:56:53.119Z,100195.53
2022-12-07T21:59:21.249Z,100195.53
2022-12-07T22:01:48.750Z,100195.22
2022-12-07T22:04:18.493Z,100196.03
2022-12-07T22:06:46.407Z,100191.72
2022-12-07T22:09:13.375Z,100185.72
2022-12-07T22:11:40.382Z,100191.59
2022-12-07T22:14:27.521Z,100183.91
2022-12-07T22:16:54.040Z,100182.88
2022-12-07T22:19:20.588Z,100181.13
2022-12-07T22:21:47.164Z,100182.03
2022-12-07T22:24:14.018Z,100175.97
2022-12-07T22:26:41.996Z,100167.50
2022-12-07T22:29:08.900Z,100164.97
2022-12-07T22:31:35.776Z,100170.66
2022-12-07T22:34:02.424Z,100173.16
2022-12-07T22:36:29.820Z,100174.91
2022-12-07T22:38:56.895Z,100169.75
2022-12-07T22:44:07.199Z,100169.75
2022-12-07T22:46:34.158Z,100160.28
2022-12-07T22:49:01.139Z,100159.22
2022-12-07T22:54:07.218Z,100152.94
2022-12-07T22:56:36.291Z,100155.41
2022-12-07T22:59:04.512Z,100153.69
2022-12-07T23:01:31.099Z,100146.72
2022-12-07T23:03:57.911Z,100146.56
2022-12-07T23:06:27.339Z,100141.50
2022-12-07T23:08:57.014Z,100139.75
2022-12-07T23:11:46.112Z,100138.03
2022-12-07T23:14:15.851Z,100129.38
2022-12-07T23:16:42.836Z,100130.91
2022-12-07T23:19:09.597Z,100129.03
2022-12-07T23:21:36.392Z,100121.31
2022-12-07T23:24:03.036Z,100124.78
2022-12-07T23:26:29.827Z,100127.28
2022-12-07T23:28:58.326Z,100119.59
2022-12-07T23:31:25.425Z,100118.78
2022-12-07T23:33:52.016Z,100120.28
2022-12-07T23:36:21.122Z,100120.28
2022-12-07T23:38:50.047Z,100111.75
2022-12-07T23:41:19.298Z,100109.19
2022-12-07T23:43:46.382Z,100106.81
2022-12-07T23:46:15.952Z,100111.88
2022-12-07T23:48:43.359Z,100109.44
2022-12-07T23:51:11.927Z,100096.66
2022-12-07T23:53:44.035Z,100101.72
2022-12-07T23:56:14.423Z,100095.75
2022-12-07T23:58:41.576Z,100094.09
